createdAt,value
2023-02-27T00:00:56.893Z,315
2023-02-27T00:05:56.125Z,315
2023-02-27T00:10:56.454Z,315
2023-02-27T00:15:56.872Z,315
2023-02-27T00:20:56.778Z,315
2023-02-27T00:25:56.186Z,315
2023-02-27T00:30:56.518Z,315
2023-02-27T00:35:56.772Z,315
2023-02-27T00:40:56.736Z,315
2023-02-27T00:45:56.954Z,315
2023-02-27T00:50:56.531Z,315
2023-02-27T00:55:56.767Z,315
2023-02-27T01:00:56.203Z,315
2023-02-27T01:05:56.436Z,315
2023-02-27T01:10:56.924Z,315
2023-02-27T01:15:56.407Z,315
2023-02-27T01:20:56.815Z,315
2023-02-27T01:25:56.118Z,315
2023-02-27T01:30:56.625Z,315
2023-02-27T01:35:57.025Z,315
2023-02-27T01:40:56.379Z,315
2023-02-27T01:45:56.788Z,315
2023-02-27T01:50:56.200Z,315
2023-02-27T01:55:56.461Z,315
2023-02-27T02:00:56.849Z,315
2023-02-27T02:05:57.093Z,315
2023-02-27T02:10:56.477Z,315
2023-02-27T02:15:56.948Z,315
2023-02-27T02:20:56.320Z,315
2023-02-27T02:25:56.554Z,315
2023-02-27T02:30:57.060Z,315
2023-02-27T02:35:56.362Z,315
2023-02-27T02:40:56.626Z,315
2023-02-27T02:45:56.853Z,315
2023-02-27T02:50:57.158Z,315
2023-02-27T02:55:56.735Z,315
2023-02-27T03:00:57.143Z,315
2023-02-27T03:05:56.602Z,315
2023-02-27T03:10:56.902Z,315
2023-02-27T03:15:56.541Z,315
2023-02-27T03:20:56.370Z,315
2023-02-27T03:25:59.333Z,315
2023-02-27T03:30:57.032Z,315
2023-02-27T03:35:56.850Z,315
2023-02-27T03:40:56.988Z,315
2023-02-27T03:45:56.339Z,315
2023-02-27T03:50:57.025Z,315
2023-02-27T03:55:56.337Z,315
2023-02-27T04:00:56.499Z,315
2023-02-27T04:05:56.658Z,315
2023-02-27T04:10:56.632Z,315
2023-02-27T04:15:56.460Z,315
2023-02-27T04:20:56.914Z,315
2023-02-27T04:25:56.307Z,315
2023-02-27T04:30:56.975Z,315
2023-02-27T04:35:57.010Z,315
2023-02-27T04:40:56.347Z,315
2023-02-27T04:45:56.582Z,315
2023-02-27T04:50:56.868Z,315
2023-02-27T04:55:57.030Z,315
2023-02-27T05:00:56.300Z,315
2023-02-27T05:05:56.430Z,315
2023-02-27T05:10:56.813Z,315
2023-02-27T06:55:57.193Z,315
2023-02-27T07:00:56.416Z,315
2023-02-27T07:05:56.664Z,315
2023-02-27T07:10:56.952Z,315
2023-02-27T07:15:57.213Z,315
2023-02-27T07:20:57.208Z,315
2023-02-27T07:25:57.195Z,315
2023-02-27T07:30:56.813Z,315
2023-02-27T07:35:57.500Z,315
2023-02-27T07:40:56.951Z,315
2023-02-27T07:45:56.249Z,338
2023-02-27T07:50:56.910Z,338
2023-02-27T07:55:57.219Z,315
2023-02-27T08:00:56.909Z,315
2023-02-27T08:05:57.231Z,338
2023-02-27T08:10:56.796Z,338
2023-02-27T08:15:57.067Z,292
2023-02-27T08:20:56.399Z,292
2023-02-27T08:25:56.552Z,292
2023-02-27T08:30:57.315Z,292
2023-02-27T08:35:56.521Z,315
2023-02-27T08:40:56.883Z,315
2023-02-27T08:45:56.496Z,315
2023-02-27T08:50:58.195Z,315
2023-02-27T08:55:56.401Z,338
2023-02-27T09:00:56.769Z,338
2023-02-27T09:05:57.277Z,45
2023-02-27T09:10:56.654Z,45
2023-02-27T09:15:56.884Z,135
2023-02-27T09:20:57.203Z,135
2023-02-27T09:25:56.354Z,22
2023-02-27T09:30:57.269Z,22
2023-02-27T09:35:57.018Z,0
2023-02-27T09:40:56.670Z,0
2023-02-27T09:45:57.084Z,0
2023-02-27T09:50:56.947Z,0
2023-02-27T09:55:56.301Z,90
2023-02-27T10:00:56.541Z,90
2023-02-27T10:05:56.325Z,22
2023-02-27T10:10:57.353Z,22
2023-02-27T10:15:56.799Z,22
2023-02-27T10:20:57.375Z,22
2023-02-27T10:25:56.731Z,22
2023-02-27T10:30:57.056Z,22
2023-02-27T10:35:57.478Z,90
2023-02-27T10:40:58.097Z,90
2023-02-27T10:45:56.524Z,90
2023-02-27T10:50:56.802Z,90
2023-02-27T10:55:57.040Z,315
2023-02-27T11:00:56.462Z,315
2023-02-27T11:05:56.981Z,338
2023-02-27T11:10:57.385Z,338
2023-02-27T11:15:56.748Z,22
2023-02-27T11:20:57.007Z,22
2023-02-27T11:25:57.213Z,45
2023-02-27T11:30:56.618Z,45
2023-02-27T11:35:58.804Z,22
2023-02-27T11:40:57.279Z,22
2023-02-27T11:46:46.288Z,315
2023-02-27T11:50:56.556Z,315
2023-02-27T11:55:56.865Z,338
2023-02-27T12:00:57.188Z,338
2023-02-27T12:05:56.609Z,338
2023-02-27T12:11:14.799Z,338
2023-02-27T12:15:57.160Z,22
2023-02-27T12:20:57.395Z,22
2023-02-27T12:25:56.696Z,338
2023-02-27T12:30:56.888Z,338
2023-02-27T12:35:57.482Z,338
2023-02-27T12:40:56.766Z,338
2023-02-27T12:45:57.570Z,45
2023-02-27T12:50:56.910Z,45
2023-02-27T12:55:56.739Z,292
2023-02-27T13:00:57.175Z,292
2023-02-27T13:05:57.296Z,338
2023-02-27T13:10:57.487Z,338
2023-02-27T13:15:56.969Z,0
2023-02-27T13:20:57.340Z,0
2023-02-27T13:25:56.550Z,292
2023-02-27T13:30:56.825Z,292
2023-02-27T13:35:57.169Z,45
2023-02-27T13:40:57.436Z,45
2023-02-27T13:45:56.990Z,0
2023-02-27T13:50:57.273Z,0
2023-02-27T13:55:57.409Z,0
2023-02-27T14:00:56.710Z,0
2023-02-27T14:05:57.219Z,22
2023-02-27T14:10:57.414Z,22
2023-02-27T14:15:56.656Z,292
2023-02-27T14:20:56.935Z,292
2023-02-27T14:25:56.733Z,315
2023-02-27T14:30:57.516Z,315
2023-02-27T14:35:56.713Z,68
2023-02-27T14:40:57.175Z,68
2023-02-27T14:45:57.562Z,270
2023-02-27T14:50:57.223Z,270
2023-02-27T14:55:56.619Z,22
2023-02-27T15:00:56.891Z,22
2023-02-27T15:05:56.685Z,22
2023-02-27T15:10:57.214Z,22
2023-02-27T15:16:14.932Z,338
2023-02-27T15:20:56.553Z,338
2023-02-27T15:25:57.213Z,22
2023-02-27T15:30:57.323Z,22
2023-02-27T15:35:57.387Z,68
2023-02-27T15:40:57.157Z,68
2023-02-27T15:45:56.698Z,45
2023-02-27T15:50:57.267Z,45
2023-02-27T15:55:57.256Z,45
2023-02-27T16:00:57.122Z,45
2023-02-27T16:05:57.519Z,338
2023-02-27T16:10:57.130Z,338
2023-02-27T16:15:57.272Z,45
2023-02-27T16:20:56.835Z,45
2023-02-27T16:25:57.097Z,338
2023-02-27T16:30:57.353Z,338
2023-02-27T16:35:56.864Z,45
2023-02-27T16:40:57.554Z,45
2023-02-27T16:45:56.899Z,338
2023-02-27T16:50:57.368Z,338
2023-02-27T16:55:56.687Z,22
2023-02-27T17:00:57.111Z,22
2023-02-27T17:05:57.442Z,22
2023-02-27T17:10:56.734Z,22
2023-02-27T17:15:56.867Z,22
2023-02-27T17:20:57.147Z,22
2023-02-27T17:25:57.420Z,22
2023-02-27T17:30:57.704Z,22
2023-02-27T17:35:57.133Z,22
2023-02-27T17:40:56.876Z,22
2023-02-27T17:45:57.162Z,22
2023-02-27T17:50:57.486Z,22
2023-02-27T17:55:56.830Z,22
2023-02-27T18:00:57.057Z,22
2023-02-27T18:05:57.398Z,22
2023-02-27T18:10:56.726Z,22
2023-02-27T18:15:57.110Z,22
2023-02-27T18:20:57.345Z,22
2023-02-27T18:25:57.587Z,22
2023-02-27T18:30:56.830Z,22
2023-02-27T18:35:57.413Z,22
2023-02-27T18:40:56.883Z,22
2023-02-27T18:45:57.283Z,22
2023-02-27T18:50:57.627Z,22
2023-02-27T18:55:56.927Z,22
2023-02-27T20:25:57.181Z,22
2023-02-27T20:30:57.541Z,22
2023-02-27T20:35:56.967Z,22
2023-02-27T20:40:57.124Z,22
2023-02-27T20:45:57.429Z,22
2023-02-27T20:50:56.758Z,22
2023-02-27T20:55:57.040Z,22
2023-02-27T21:00:57.393Z,22
2023-02-27T21:05:57.613Z,22
2023-02-27T21:10:57.806Z,22
2023-02-27T21:15:57.264Z,22
2023-02-27T21:20:56.795Z,22
2023-02-27T21:25:57.565Z,22
2023-02-27T21:30:56.855Z,22
2023-02-27T21:35:57.020Z,22
2023-02-27T21:40:56.920Z,22
2023-02-27T21:45:57.451Z,22
2023-02-27T21:50:56.918Z,22
2023-02-27T21:55:57.237Z,22
2023-02-27T22:00:56.912Z,22
2023-02-27T22:05:57.174Z,22
2023-02-27T22:10:57.578Z,22
2023-02-27T22:15:57.141Z,22
2023-02-27T22:20:57.427Z,22
2023-02-27T22:25:57.705Z,22
2023-02-27T22:30:56.946Z,22
2023-02-27T22:35:57.187Z,22
2023-02-27T22:40:57.391Z,22
2023-02-27T22:45:57.587Z,22
2023-02-27T22:50:57.795Z,22
2023-02-27T22:55:57.251Z,22
2023-02-27T23:00:57.496Z,22
2023-02-27T23:05:57.955Z,22
2023-02-27T23:10:57.558Z,22
2023-02-27T23:15:57.200Z,22
2023-02-27T23:20:57.647Z,22
2023-02-27T23:25:57.172Z,22
2023-02-27T23:30:57.457Z,22
2023-02-27T23:35:57.821Z,22
2023-02-27T23:40:57.418Z,22
2023-02-27T23:45:57.793Z,45
2023-02-27T23:55:59.166Z,45
